createdAt,value
2022-10-05T00:00:22.852Z,64.20
2022-10-05T00:01:27.332Z,64.35
2022-10-05T00:02:32.177Z,64.36
2022-10-05T00:03:37.255Z,64.36
2022-10-05T00:04:39.580Z,64.32
2022-10-05T00:05:41.994Z,64.08
2022-10-05T00:07:08.684Z,64.15
2022-10-05T00:08:18.875Z,64.18
2022-10-05T00:09:22.042Z,64.25
2022-10-05T00:10:27.966Z,64.27
2022-10-05T00:11:30.291Z,64.31
2022-10-05T00:12:32.759Z,64.13
2022-10-05T00:13:35.120Z,64.19
2022-10-05T00:14:37.304Z,64.46
2022-10-05T00:15:39.541Z,64.32
2022-10-05T00:16:41.806Z,64.45
2022-10-05T00:17:44.363Z,64.34
2022-10-05T00:18:51.770Z,64.37
2022-10-05T00:19:54.623Z,64.49
2022-10-05T00:20:57.118Z,64.55
2022-10-05T00:22:09.167Z,64.41
2022-10-05T00:23:30.914Z,64.53
2022-10-05T00:24:33.125Z,64.39
2022-10-05T00:25:35.339Z,64.31
2022-10-05T00:26:37.549Z,64.45
2022-10-05T00:27:41.560Z,64.38
2022-10-05T00:28:43.751Z,64.32
2022-10-05T00:29:50.717Z,64.54
2022-10-05T00:30:59.217Z,64.57
2022-10-05T00:32:02.361Z,64.48
2022-10-05T00:33:04.608Z,64.36
2022-10-05T00:34:06.847Z,64.45
2022-10-05T00:35:10.253Z,64.33
2022-10-05T00:36:12.858Z,64.30
2022-10-05T00:37:15.267Z,64.38
2022-10-05T00:38:17.693Z,64.55
2022-10-05T00:39:20.004Z,64.38
2022-10-05T00:41:05.252Z,64.35
2022-10-05T00:42:16.650Z,64.44
2022-10-05T00:43:24.347Z,64.23
2022-10-05T00:44:45.632Z,64.30
2022-10-05T00:45:53.290Z,64.41
2022-10-05T00:47:23.230Z,64.11
2022-10-05T00:48:49.504Z,64.15
2022-10-05T00:50:10.563Z,64.21
2022-10-05T00:51:30.027Z,64.28
2022-10-05T00:52:44.753Z,64.27
2022-10-05T00:53:52.017Z,64.38
2022-10-05T00:55:41.096Z,64.15
2022-10-05T00:57:04.167Z,64.30
2022-10-05T00:58:50.112Z,64.43
2022-10-05T01:00:01.707Z,64.11
2022-10-05T01:01:16.851Z,64.13
2022-10-05T01:02:36.540Z,64.13
2022-10-05T01:04:16.689Z,64.17
2022-10-05T01:06:10.679Z,64.14
2022-10-05T01:07:40.968Z,64.06
2022-10-05T01:09:17.421Z,64.10
2022-10-05T01:11:03.964Z,64.07
2022-10-05T01:12:23.313Z,64.11
2022-10-05T01:13:38.667Z,64.06
2022-10-05T01:15:03.590Z,63.92
2022-10-05T01:16:27.517Z,64.14
2022-10-05T01:17:37.318Z,63.98
2022-10-05T01:19:09.363Z,63.89
2022-10-05T01:20:18.006Z,64.08
2022-10-05T01:21:26.127Z,64.10
2022-10-05T01:23:17.340Z,63.91
2022-10-05T01:24:31.618Z,64.02
2022-10-05T01:25:36.419Z,64.08
2022-10-05T01:26:53.142Z,64.00
2022-10-05T01:28:14.017Z,63.91
2022-10-05T01:29:30.821Z,64.10
2022-10-05T01:30:50.617Z,63.86
2022-10-05T01:32:00.338Z,64.12
2022-10-05T01:33:29.333Z,64.18
2022-10-05T01:34:48.027Z,64.02
2022-10-05T01:35:59.311Z,64.01
2022-10-05T01:37:04.181Z,63.98
2022-10-05T01:38:12.572Z,64.15
2022-10-05T01:39:40.845Z,63.98
2022-10-05T01:41:06.927Z,64.08
2022-10-05T01:42:27.809Z,64.13
2022-10-05T01:43:36.115Z,64.08
2022-10-05T01:44:51.947Z,64.07
2022-10-05T01:46:28.968Z,64.00
2022-10-05T01:47:43.804Z,63.99
2022-10-05T01:49:17.221Z,64.13
2022-10-05T01:50:29.099Z,64.11
2022-10-05T01:51:48.242Z,64.11
2022-10-05T01:53:21.641Z,64.07
2022-10-05T01:54:39.960Z,64.08
2022-10-05T01:55:54.334Z,64.21
2022-10-05T01:57:34.227Z,64.17
2022-10-05T01:59:00.867Z,64.15
2022-10-05T02:00:19.517Z,64.15
2022-10-05T02:01:35.750Z,64.09
2022-10-05T02:02:51.792Z,64.18
2022-10-05T02:04:35.621Z,64.19
2022-10-05T02:06:01.093Z,64.23
2022-10-05T02:07:13.606Z,64.21
2022-10-05T02:08:19.222Z,64.30
2022-10-05T02:09:32.155Z,64.32
2022-10-05T02:10:42.532Z,64.23
2022-10-05T02:11:52.433Z,64.34
2022-10-05T02:13:01.900Z,64.33
2022-10-05T02:14:12.571Z,64.20
2022-10-05T02:15:22.960Z,64.46
2022-10-05T02:16:38.885Z,64.35
2022-10-05T02:17:48.929Z,64.37
2022-10-05T02:18:57.761Z,64.35
2022-10-05T02:20:10.911Z,64.29
2022-10-05T02:21:13.159Z,64.29
2022-10-05T02:22:25.067Z,64.32
2022-10-05T02:23:33.266Z,64.23
2022-10-05T02:24:43.127Z,64.22
2022-10-05T02:25:48.053Z,64.18
2022-10-05T02:26:52.471Z,64.32
2022-10-05T02:28:01.988Z,64.36
2022-10-05T02:29:10.527Z,64.31
2022-10-05T02:30:16.358Z,64.56
2022-10-05T02:31:24.291Z,64.49
2022-10-05T02:32:32.640Z,64.34
2022-10-05T02:33:35.649Z,64.43
2022-10-05T02:34:43.840Z,64.43
2022-10-05T02:35:53.151Z,64.36
2022-10-05T02:37:19.667Z,64.41
2022-10-05T02:38:51.087Z,64.28
2022-10-05T02:40:03.761Z,64.40
2022-10-05T02:41:28.994Z,64.24
2022-10-05T02:42:49.895Z,64.42
2022-10-05T02:44:19.760Z,64.39
2022-10-05T02:45:36.863Z,64.40
2022-10-05T02:46:56.975Z,64.31
2022-10-05T02:48:09.268Z,64.40
2022-10-05T02:49:34.761Z,64.38
2022-10-05T02:51:21.023Z,64.39
2022-10-05T02:52:37.981Z,64.33
2022-10-05T02:54:03.847Z,64.46
2022-10-05T02:55:28.217Z,64.46
2022-10-05T02:57:23.900Z,64.49
2022-10-05T02:58:53.305Z,64.65
2022-10-05T03:00:09.905Z,64.58
2022-10-05T03:01:36.006Z,64.68
2022-10-05T03:02:48.291Z,64.77
2022-10-05T03:04:14.268Z,64.69
2022-10-05T03:05:32.137Z,64.67
2022-10-05T03:07:04.838Z,64.76
2022-10-05T03:08:26.013Z,64.89
2022-10-05T03:09:41.012Z,65.06
2022-10-05T03:11:08.564Z,65.11
2022-10-05T03:12:15.331Z,65.05
2022-10-05T03:13:30.628Z,65.08
2022-10-05T03:15:06.978Z,65.06
2022-10-05T03:16:28.252Z,65.01
2022-10-05T03:17:57.716Z,64.96
2022-10-05T03:19:00.000Z,65.08
2022-10-05T03:20:31.603Z,65.00
2022-10-05T03:21:53.354Z,65.18
2022-10-05T03:23:02.502Z,65.17
2022-10-05T03:24:20.054Z,65.22
2022-10-05T03:25:59.457Z,65.28
2022-10-05T03:27:23.486Z,65.19
2022-10-05T03:28:56.991Z,65.33
2022-10-05T03:30:25.795Z,65.27
2022-10-05T03:31:47.339Z,65.37
2022-10-05T03:33:09.497Z,65.13
2022-10-05T03:34:32.405Z,65.31
2022-10-05T03:36:25.287Z,65.29
2022-10-05T03:37:46.105Z,65.21
2022-10-05T03:39:13.999Z,65.32
2022-10-05T03:40:41.680Z,65.29
2022-10-05T03:42:02.641Z,65.41
2022-10-05T03:43:36.034Z,65.27
2022-10-05T03:45:04.899Z,65.50
2022-10-05T03:46:17.059Z,65.42
2022-10-05T03:47:36.044Z,65.46
2022-10-05T03:48:52.037Z,65.48
2022-10-05T03:50:21.936Z,65.56
2022-10-05T03:51:35.025Z,65.51
2022-10-05T03:52:53.100Z,65.54
2022-10-05T03:54:24.710Z,65.42
2022-10-05T03:55:39.385Z,65.68
2022-10-05T03:56:51.405Z,65.58
2022-10-05T03:57:59.835Z,65.62
2022-10-05T03:59:42.145Z,65.49
2022-10-05T04:00:48.281Z,65.46
2022-10-05T04:02:07.494Z,65.53
2022-10-05T04:03:17.830Z,65.48
2022-10-05T04:04:29.995Z,65.49
2022-10-05T04:05:38.666Z,65.53
2022-10-05T04:06:49.781Z,65.34
2022-10-05T04:08:00.650Z,65.39
2022-10-05T04:09:36.183Z,65.39
2022-10-05T04:10:52.450Z,65.27
2022-10-05T04:12:16.341Z,65.31
2022-10-05T04:13:22.400Z,65.28
2022-10-05T04:14:34.270Z,65.37
2022-10-05T04:15:44.330Z,65.24
2022-10-05T04:17:12.072Z,65.28
2022-10-05T04:18:28.831Z,65.27
2022-10-05T04:19:37.091Z,65.23
2022-10-05T04:20:46.906Z,65.28
2022-10-05T04:22:00.768Z,65.24
2022-10-05T04:23:16.808Z,65.51
2022-10-05T04:24:47.282Z,65.34
2022-10-05T04:25:53.993Z,65.39
2022-10-05T04:27:05.995Z,65.53
2022-10-05T04:28:34.506Z,65.33
2022-10-05T04:30:02.050Z,65.24
2022-10-05T04:31:07.165Z,65.22
2022-10-05T04:32:15.799Z,65.45
2022-10-05T04:33:19.061Z,65.34
2022-10-05T04:34:46.225Z,65.38
2022-10-05T04:36:20.805Z,65.44
2022-10-05T04:37:47.682Z,65.47
2022-10-05T04:39:05.287Z,65.56
2022-10-05T04:40:28.621Z,65.63
2022-10-05T04:42:00.625Z,65.65
2022-10-05T04:43:23.987Z,65.65
2022-10-05T04:44:28.991Z,65.67
2022-10-05T04:45:43.491Z,65.70
2022-10-05T04:47:10.779Z,65.87
2022-10-05T04:48:42.235Z,65.95
2022-10-05T04:50:06.210Z,65.90
2022-10-05T04:51:14.490Z,65.92
2022-10-05T04:52:44.430Z,65.91
2022-10-05T04:53:57.289Z,66.07
2022-10-05T04:55:18.593Z,65.81
2022-10-05T04:56:41.654Z,65.97
2022-10-05T04:58:02.742Z,65.93
2022-10-05T04:59:36.804Z,66.20
2022-10-05T05:01:00.500Z,66.05
2022-10-05T05:02:25.108Z,65.97
2022-10-05T05:03:39.848Z,66.10
2022-10-05T05:05:13.730Z,66.01
2022-10-05T05:06:31.117Z,66.13
2022-10-05T05:07:42.341Z,66.18
2022-10-05T05:08:58.108Z,66.23
2022-10-05T05:10:15.685Z,66.14
2022-10-05T05:11:30.472Z,66.13
2022-10-05T05:12:51.274Z,66.09
2022-10-05T05:14:16.530Z,66.17
2022-10-05T05:15:26.296Z,66.19
2022-10-05T05:16:39.404Z,66.12
2022-10-05T05:18:01.805Z,66.18
2022-10-05T05:19:04.322Z,66.18
2022-10-05T05:20:31.355Z,66.22
2022-10-05T05:21:46.785Z,66.29
2022-10-05T05:23:06.996Z,66.31
2022-10-05T05:24:34.026Z,66.29
2022-10-05T05:25:57.262Z,66.43
2022-10-05T05:27:09.052Z,66.45
2022-10-05T05:28:16.981Z,66.36
2022-10-05T05:29:29.413Z,66.32
2022-10-05T05:30:50.869Z,66.33
2022-10-05T05:32:10.972Z,66.37
2022-10-05T05:33:25.292Z,66.27
2022-10-05T05:35:08.341Z,66.33
2022-10-05T05:36:52.239Z,66.31
2022-10-05T05:38:06.364Z,66.32
2022-10-05T05:39:50.055Z,66.22
2022-10-05T05:41:09.386Z,66.26
2022-10-05T05:42:17.916Z,66.27
2022-10-05T05:43:36.618Z,66.17
2022-10-05T05:44:48.112Z,66.21
2022-10-05T05:46:01.888Z,66.23
2022-10-05T05:47:16.947Z,66.31
2022-10-05T05:48:51.613Z,66.33
2022-10-05T05:50:07.416Z,66.23
2022-10-05T05:51:42.391Z,66.26
2022-10-05T05:52:55.440Z,66.21
2022-10-05T05:54:22.531Z,66.22
2022-10-05T05:55:42.897Z,66.38
2022-10-05T05:56:52.451Z,66.35
2022-10-05T05:57:59.155Z,66.42
2022-10-05T05:59:11.125Z,66.17
2022-10-05T06:00:23.411Z,66.35
2022-10-05T06:01:40.698Z,66.22
2022-10-05T06:02:56.962Z,66.30
2022-10-05T06:04:11.118Z,66.37
2022-10-05T06:05:38.093Z,66.25
2022-10-05T06:06:46.796Z,66.43
2022-10-05T06:07:53.053Z,66.46
2022-10-05T06:09:03.576Z,66.45
2022-10-05T06:10:24.934Z,66.38
2022-10-05T06:11:48.199Z,66.18
2022-10-05T06:12:58.447Z,66.34
2022-10-05T06:14:32.219Z,66.26
2022-10-05T06:15:57.094Z,66.43
2022-10-05T06:17:12.364Z,66.49
2022-10-05T06:18:20.945Z,66.48
2022-10-05T06:19:26.513Z,66.32
2022-10-05T06:20:53.955Z,66.28
2022-10-05T06:22:25.313Z,66.46
2022-10-05T06:23:56.676Z,66.30
2022-10-05T06:25:08.280Z,66.24
2022-10-05T06:26:17.021Z,66.34
2022-10-05T06:27:44.315Z,66.42
2022-10-05T06:28:56.283Z,66.49
2022-10-05T06:30:15.677Z,66.29
2022-10-05T06:32:04.097Z,66.46
2022-10-05T06:33:44.056Z,66.48
2022-10-05T06:35:09.289Z,66.09
2022-10-05T06:36:27.271Z,66.15
2022-10-05T06:37:37.057Z,66.17
2022-10-05T06:38:49.249Z,66.03
2022-10-05T06:40:05.807Z,66.11
2022-10-05T06:41:26.388Z,65.49
2022-10-05T06:42:40.038Z,65.12
2022-10-05T06:44:23.018Z,65.10
2022-10-05T06:46:04.468Z,64.83
2022-10-05T06:47:50.435Z,64.60
2022-10-05T06:49:25.918Z,64.48
2022-10-05T06:51:23.488Z,64.53
2022-10-05T06:53:12.748Z,63.70
2022-10-05T06:54:24.197Z,63.63
2022-10-05T06:55:54.379Z,63.39
2022-10-05T06:57:07.655Z,63.09
2022-10-05T06:58:41.132Z,62.24
2022-10-05T07:00:02.827Z,62.15
2022-10-05T07:01:12.964Z,61.35
2022-10-05T07:02:24.078Z,61.29
2022-10-05T07:04:05.281Z,61.29
2022-10-05T07:05:22.753Z,60.73
2022-10-05T07:06:36.568Z,60.42
2022-10-05T07:08:20.835Z,60.23
2022-10-05T07:09:25.900Z,60.46
2022-10-05T07:11:04.735Z,59.21
2022-10-05T07:12:34.584Z,59.05
2022-10-05T07:14:15.816Z,58.59
2022-10-05T07:15:36.030Z,58.13
2022-10-05T07:16:59.967Z,57.86
2022-10-05T07:18:16.239Z,57.13
2022-10-05T07:19:52.792Z,57.00
2022-10-05T07:21:34.621Z,57.13
2022-10-05T07:23:24.793Z,56.80
2022-10-05T07:24:33.249Z,55.86
2022-10-05T07:25:59.934Z,55.38
2022-10-05T07:27:08.668Z,55.40
2022-10-05T07:28:37.074Z,55.46
2022-10-05T07:29:55.297Z,55.02
2022-10-05T07:31:21.935Z,55.44
2022-10-05T07:32:47.938Z,55.13
2022-10-05T07:34:09.596Z,54.58
2022-10-05T07:35:48.093Z,54.21
2022-10-05T07:37:28.267Z,53.57
2022-10-05T07:38:43.129Z,54.07
2022-10-05T07:40:04.132Z,53.62
2022-10-05T07:41:23.523Z,53.20
2022-10-05T07:42:50.708Z,52.56
2022-10-05T07:44:08.869Z,52.38
2022-10-05T07:45:17.165Z,52.49
2022-10-05T07:46:27.473Z,52.52
2022-10-05T07:47:41.092Z,52.63
2022-10-05T07:49:05.583Z,52.50
2022-10-05T07:50:24.158Z,51.95
2022-10-05T07:51:33.168Z,51.65
2022-10-05T07:52:50.092Z,50.96
2022-10-05T07:54:07.108Z,50.93
2022-10-05T07:55:25.607Z,51.02
2022-10-05T07:56:59.704Z,50.24
2022-10-05T07:58:29.480Z,50.29
2022-10-05T07:59:57.057Z,50.29
2022-10-05T08:01:27.563Z,50.59
2022-10-05T08:02:51.251Z,50.63
2022-10-05T08:04:17.820Z,50.89
2022-10-05T08:05:29.022Z,49.81
2022-10-05T08:06:53.342Z,50.13
2022-10-05T08:08:06.734Z,49.22
2022-10-05T08:09:23.598Z,49.32
2022-10-05T08:11:14.882Z,49.22
2022-10-05T08:12:17.189Z,48.72
2022-10-05T08:13:42.299Z,48.94
2022-10-05T08:14:58.212Z,47.87
2022-10-05T08:16:12.822Z,48.30
2022-10-05T08:17:26.492Z,48.51
2022-10-05T08:18:48.753Z,48.55
2022-10-05T08:20:03.517Z,48.43
2022-10-05T08:21:12.186Z,48.20
2022-10-05T08:22:23.679Z,47.85
2022-10-05T08:23:39.159Z,47.53
2022-10-05T08:25:24.824Z,47.76
2022-10-05T08:26:48.722Z,48.12
2022-10-05T08:28:08.687Z,47.96
2022-10-05T08:29:52.753Z,47.73
2022-10-05T08:31:01.647Z,47.55
2022-10-05T08:32:11.940Z,46.83
2022-10-05T08:33:36.928Z,47.03
2022-10-05T08:35:04.977Z,47.09
2022-10-05T08:36:12.586Z,46.50
2022-10-05T08:37:44.535Z,47.16
2022-10-05T08:38:47.977Z,46.64
2022-10-05T08:40:04.418Z,46.80
2022-10-05T08:41:27.761Z,46.66
2022-10-05T08:42:40.871Z,47.17
2022-10-05T08:44:28.217Z,46.82
2022-10-05T08:46:04.367Z,47.04
2022-10-05T08:47:20.509Z,46.86
2022-10-05T08:48:46.321Z,46.93
2022-10-05T08:50:16.241Z,47.18
2022-10-05T08:51:44.696Z,46.46
2022-10-05T08:53:17.888Z,46.80
2022-10-05T08:54:31.918Z,46.63
2022-10-05T08:55:40.870Z,46.91
2022-10-05T08:57:04.093Z,47.05
2022-10-05T08:58:33.635Z,46.85
2022-10-05T09:00:13.062Z,47.07
2022-10-05T09:01:37.167Z,46.83
2022-10-05T09:02:45.270Z,47.08
2022-10-05T09:04:24.032Z,47.68
2022-10-05T09:05:36.554Z,47.08
2022-10-05T09:06:53.136Z,46.92
2022-10-05T09:08:16.607Z,47.24
2022-10-05T09:09:35.421Z,46.80
2022-10-05T09:10:46.466Z,47.21
2022-10-05T09:12:10.262Z,46.86
2022-10-05T09:13:37.791Z,47.33
2022-10-05T09:15:24.332Z,47.07
2022-10-05T09:16:53.046Z,47.07
2022-10-05T09:18:22.992Z,47.09
2022-10-05T09:19:51.946Z,47.31
2022-10-05T09:21:16.816Z,47.58
2022-10-05T09:22:38.950Z,47.10
2022-10-05T09:23:49.175Z,47.14
2022-10-05T09:25:03.567Z,46.56
2022-10-05T09:26:23.340Z,46.02
2022-10-05T09:27:39.138Z,45.75
2022-10-05T09:28:41.459Z,46.19
2022-10-05T09:30:11.522Z,46.22
2022-10-05T09:31:26.435Z,46.57
2022-10-05T09:32:37.518Z,46.40
2022-10-05T09:34:10.770Z,46.59
2022-10-05T09:35:33.195Z,46.43
2022-10-05T09:36:41.204Z,46.31
2022-10-05T09:37:55.419Z,46.35
2022-10-05T09:39:16.519Z,46.64
2022-10-05T09:40:54.581Z,46.63
2022-10-05T09:42:19.470Z,46.48
2022-10-05T09:43:42.831Z,46.20
2022-10-05T09:45:07.550Z,45.69
2022-10-05T09:46:39.127Z,45.80
2022-10-05T09:48:07.636Z,45.54
2022-10-05T09:49:18.856Z,45.13
2022-10-05T09:50:32.641Z,44.91
2022-10-05T09:51:58.774Z,45.37
2022-10-05T09:53:40.867Z,45.44
2022-10-05T09:55:20.588Z,45.22
2022-10-05T09:56:51.905Z,45.09
2022-10-05T09:58:12.602Z,44.90
2022-10-05T09:59:55.537Z,45.09
2022-10-05T10:01:36.397Z,44.70
2022-10-05T10:03:12.821Z,44.99
2022-10-05T10:04:24.791Z,44.57
2022-10-05T10:05:50.755Z,44.40
2022-10-05T10:07:07.702Z,44.55
2022-10-05T10:08:25.283Z,44.56
2022-10-05T10:09:49.277Z,44.84
2022-10-05T10:11:24.599Z,44.81
2022-10-05T10:13:08.228Z,44.71
2022-10-05T10:14:39.217Z,44.80
2022-10-05T10:15:48.455Z,44.56
2022-10-05T10:17:07.399Z,44.98
2022-10-05T10:18:18.386Z,44.83
2022-10-05T10:19:51.430Z,45.12
2022-10-05T10:21:33.771Z,45.31
2022-10-05T10:22:43.270Z,44.43
2022-10-05T10:24:14.990Z,44.61
2022-10-05T10:25:35.400Z,44.96
2022-10-05T10:26:54.966Z,45.19
2022-10-05T10:28:19.682Z,45.33
2022-10-05T10:29:40.222Z,45.37
2022-10-05T10:31:00.837Z,44.97
2022-10-05T10:32:03.230Z,44.91
2022-10-05T10:33:26.917Z,44.63
2022-10-05T10:34:35.193Z,45.03
2022-10-05T10:35:50.750Z,45.17
2022-10-05T10:37:16.425Z,44.91
2022-10-05T10:38:49.804Z,45.24
2022-10-05T10:40:29.733Z,45.13
2022-10-05T10:41:50.708Z,44.62
2022-10-05T10:42:56.373Z,45.23
2022-10-05T10:44:35.700Z,45.05
2022-10-05T10:45:54.456Z,45.19
2022-10-05T10:47:05.215Z,44.60
2022-10-05T10:48:29.636Z,44.70
2022-10-05T10:49:53.539Z,45.10
2022-10-05T10:51:14.732Z,44.82
2022-10-05T10:52:25.419Z,44.95
2022-10-05T10:54:05.075Z,44.83
2022-10-05T10:55:26.056Z,44.91
2022-10-05T10:56:50.047Z,45.11
2022-10-05T10:58:21.209Z,45.35
2022-10-05T10:59:32.028Z,44.82
2022-10-05T11:00:57.033Z,45.31
2022-10-05T11:02:13.545Z,45.37
2022-10-05T11:03:43.311Z,44.76
2022-10-05T11:05:03.729Z,44.91
2022-10-05T11:06:11.904Z,44.79
2022-10-05T11:07:43.600Z,45.16
2022-10-05T11:09:18.165Z,44.83
2022-10-05T11:10:59.015Z,44.70
2022-10-05T11:12:20.653Z,44.44
2022-10-05T11:13:48.573Z,44.65
2022-10-05T11:15:09.086Z,44.75
2022-10-05T11:16:26.009Z,44.17
2022-10-05T11:17:53.006Z,43.84
2022-10-05T11:19:30.916Z,44.65
2022-10-05T11:20:49.365Z,43.68
2022-10-05T11:22:19.376Z,43.83
2022-10-05T11:23:47.279Z,44.03
2022-10-05T11:25:01.276Z,44.10
2022-10-05T11:26:28.160Z,44.21
2022-10-05T11:27:59.205Z,43.76
2022-10-05T11:29:23.324Z,43.37
2022-10-05T11:30:35.335Z,43.32
2022-10-05T11:31:46.534Z,43.06
2022-10-05T11:33:12.004Z,43.75
2022-10-05T11:34:43.909Z,43.81
2022-10-05T11:36:04.947Z,43.04
2022-10-05T11:37:23.349Z,43.41
2022-10-05T11:38:34.568Z,42.99
2022-10-05T11:40:01.811Z,43.64
2022-10-05T11:41:12.723Z,43.24
2022-10-05T11:42:14.907Z,43.34
2022-10-05T11:43:26.277Z,43.59
2022-10-05T11:44:47.201Z,43.51
2022-10-05T11:46:20.069Z,43.11
2022-10-05T11:47:30.192Z,42.71
2022-10-05T11:48:57.079Z,43.09
2022-10-05T11:50:31.037Z,43.46
2022-10-05T11:51:57.860Z,43.53
2022-10-05T11:53:22.156Z,43.68
2022-10-05T11:55:09.426Z,43.52
2022-10-05T11:56:37.303Z,43.61
2022-10-05T11:57:59.388Z,43.62
2022-10-05T11:59:16.072Z,43.61
2022-10-05T12:00:25.373Z,43.36
2022-10-05T12:01:31.528Z,43.44
2022-10-05T12:02:54.858Z,43.18
2022-10-05T12:04:17.158Z,43.16
2022-10-05T12:05:48.040Z,43.20
2022-10-05T12:07:06.044Z,43.34
2022-10-05T12:08:17.109Z,43.66
2022-10-05T12:09:25.447Z,43.68
2022-10-05T12:10:39.738Z,43.75
2022-10-05T12:12:08.020Z,43.50
2022-10-05T12:13:47.440Z,43.79
2022-10-05T12:14:54.334Z,43.10
2022-10-05T12:16:24.690Z,42.80
2022-10-05T12:17:38.738Z,42.53
2022-10-05T12:19:12.000Z,42.71
2022-10-05T12:20:28.421Z,42.42
2022-10-05T12:21:38.721Z,42.26
2022-10-05T12:22:49.710Z,42.11
2022-10-05T12:23:53.963Z,41.87
2022-10-05T12:25:27.182Z,42.43
2022-10-05T12:26:37.825Z,42.62
2022-10-05T12:27:45.926Z,43.09
2022-10-05T12:28:53.817Z,43.31
2022-10-05T12:30:11.715Z,43.52
2022-10-05T12:31:47.786Z,43.12
2022-10-05T12:33:08.461Z,43.35
2022-10-05T12:34:11.429Z,43.31
2022-10-05T12:35:46.656Z,43.43
2022-10-05T12:37:04.476Z,43.09
2022-10-05T12:38:23.147Z,42.73
2022-10-05T12:40:06.329Z,43.13
2022-10-05T12:41:36.726Z,43.43
2022-10-05T12:42:57.109Z,43.44
2022-10-05T12:44:11.815Z,43.14
2022-10-05T12:45:33.380Z,43.11
2022-10-05T12:46:48.340Z,43.57
2022-10-05T12:48:09.076Z,43.27
2022-10-05T12:49:36.356Z,43.08
2022-10-05T12:50:58.431Z,43.41
2022-10-05T12:52:04.299Z,43.00
2022-10-05T12:53:38.632Z,43.09
2022-10-05T12:54:55.410Z,43.32
2022-10-05T12:56:11.855Z,43.30
2022-10-05T12:57:52.039Z,43.40
2022-10-05T12:59:14.358Z,43.08
2022-10-05T13:00:22.886Z,42.75
2022-10-05T13:01:40.522Z,43.27
2022-10-05T13:02:54.639Z,43.09
2022-10-05T13:04:15.402Z,42.92
2022-10-05T13:06:15.412Z,43.27
2022-10-05T13:07:38.799Z,42.82
2022-10-05T13:08:43.516Z,42.68
2022-10-05T13:10:02.226Z,42.69
2022-10-05T13:11:42.858Z,43.02
2022-10-05T13:13:09.872Z,42.82
2022-10-05T13:14:42.821Z,43.45
2022-10-05T13:16:01.821Z,43.21
2022-10-05T13:17:19.041Z,43.50
2022-10-05T13:18:57.751Z,43.65
2022-10-05T13:20:12.365Z,43.49
2022-10-05T13:21:46.146Z,43.73
2022-10-05T13:23:10.736Z,43.72
2022-10-05T13:24:23.559Z,43.62
2022-10-05T13:25:47.779Z,43.81
2022-10-05T13:26:59.367Z,43.88
2022-10-05T13:28:01.587Z,44.40
2022-10-05T13:29:22.368Z,43.96
2022-10-05T13:30:24.811Z,43.74
2022-10-05T13:32:15.323Z,44.01
2022-10-05T13:33:30.031Z,43.37
2022-10-05T13:34:40.290Z,44.09
2022-10-05T13:35:59.050Z,44.41
2022-10-05T13:37:01.213Z,44.26
2022-10-05T13:38:10.211Z,44.13
2022-10-05T13:39:27.704Z,44.28
2022-10-05T13:40:46.780Z,43.80
2022-10-05T13:42:09.464Z,44.15
2022-10-05T13:43:39.774Z,44.24
2022-10-05T13:44:46.284Z,43.89
2022-10-05T13:45:56.774Z,43.67
2022-10-05T13:47:13.494Z,43.70
2022-10-05T13:48:43.914Z,43.80
2022-10-05T13:49:55.262Z,43.56
2022-10-05T13:51:12.917Z,43.07
2022-10-05T13:52:43.258Z,43.14
2022-10-05T13:53:49.421Z,43.22
2022-10-05T13:55:06.895Z,43.29
2022-10-05T13:56:12.200Z,43.70
2022-10-05T13:57:23.487Z,43.17
2022-10-05T13:58:59.727Z,43.44
2022-10-05T14:00:13.468Z,42.68
2022-10-05T14:01:31.706Z,42.92
2022-10-05T14:02:40.245Z,42.94
2022-10-05T14:04:08.947Z,43.15
2022-10-05T14:05:24.894Z,43.04
2022-10-05T14:06:30.299Z,42.65
2022-10-05T14:07:45.706Z,42.58
2022-10-05T14:08:54.586Z,43.68
2022-10-05T14:09:59.024Z,43.50
2022-10-05T14:11:21.818Z,43.92
2022-10-05T14:12:25.417Z,43.51
2022-10-05T14:13:34.208Z,43.63
2022-10-05T14:14:55.867Z,43.47
2022-10-05T14:16:13.482Z,43.21
2022-10-05T14:17:33.987Z,43.21
2022-10-05T14:18:39.109Z,43.55
2022-10-05T14:19:48.113Z,43.68
2022-10-05T14:21:04.718Z,43.75
2022-10-05T14:22:23.572Z,43.38
2022-10-05T14:23:27.294Z,43.50
2022-10-05T14:24:44.287Z,43.52
2022-10-05T14:25:55.390Z,43.30
2022-10-05T14:26:59.880Z,43.33
2022-10-05T14:28:13.371Z,43.52
2022-10-05T14:29:21.705Z,43.43
2022-10-05T14:30:26.975Z,43.44
2022-10-05T14:31:37.219Z,43.10
2022-10-05T14:33:05.618Z,43.05
2022-10-05T14:34:31.273Z,43.39
2022-10-05T14:35:51.291Z,42.90
2022-10-05T14:37:26.289Z,43.29
2022-10-05T14:38:31.014Z,43.36
2022-10-05T14:39:34.639Z,43.43
2022-10-05T14:40:38.281Z,43.56
2022-10-05T14:41:49.387Z,43.88
2022-10-05T14:42:52.061Z,43.47
2022-10-05T14:43:58.550Z,42.89
2022-10-05T14:45:13.651Z,43.11
2022-10-05T14:46:23.218Z,43.02
2022-10-05T14:47:32.255Z,42.68
2022-10-05T14:48:46.071Z,42.72
2022-10-05T14:50:16.115Z,42.64
2022-10-05T14:51:31.924Z,41.79
2022-10-05T14:52:42.315Z,41.78
2022-10-05T14:53:57.042Z,41.34
2022-10-05T14:55:08.278Z,40.90
2022-10-05T14:56:40.432Z,41.46
2022-10-05T14:58:19.503Z,41.37
2022-10-05T14:59:29.378Z,40.71
2022-10-05T15:00:46.827Z,41.06
2022-10-05T15:02:33.169Z,41.37
2022-10-05T15:03:51.147Z,40.83
2022-10-05T15:05:24.876Z,40.86
2022-10-05T15:06:33.030Z,41.21
2022-10-05T15:07:41.573Z,41.00
2022-10-05T15:09:17.060Z,41.43
2022-10-05T15:10:52.704Z,40.96
2022-10-05T15:11:57.455Z,41.44
2022-10-05T15:13:15.231Z,41.67
2022-10-05T15:14:31.947Z,41.30
2022-10-05T15:15:46.826Z,41.34
2022-10-05T15:16:57.784Z,41.21
2022-10-05T15:18:43.116Z,41.48
2022-10-05T15:20:15.621Z,41.72
2022-10-05T15:21:40.684Z,41.59
2022-10-05T15:22:53.565Z,41.88
2022-10-05T15:24:06.369Z,41.88
2022-10-05T15:25:30.699Z,42.26
2022-10-05T15:26:49.213Z,42.12
2022-10-05T15:27:56.983Z,41.49
2022-10-05T15:29:14.653Z,41.80
2022-10-05T15:30:18.542Z,42.13
2022-10-05T15:31:43.021Z,42.52
2022-10-05T15:33:00.167Z,42.25
2022-10-05T15:34:18.292Z,42.13
2022-10-05T15:36:06.478Z,42.50
2022-10-05T15:37:22.187Z,42.05
2022-10-05T15:38:28.137Z,41.87
2022-10-05T15:39:47.519Z,42.20
2022-10-05T15:41:03.804Z,42.24
2022-10-05T15:42:13.024Z,42.40
2022-10-05T15:43:19.251Z,42.42
2022-10-05T15:44:27.608Z,42.16
2022-10-05T15:45:41.323Z,42.34
2022-10-05T15:46:43.473Z,42.46
2022-10-05T15:48:03.934Z,42.68
2022-10-05T15:49:27.737Z,42.63
2022-10-05T15:50:45.823Z,42.99
2022-10-05T15:51:54.061Z,42.84
2022-10-05T15:53:13.885Z,42.84
2022-10-05T15:54:42.972Z,42.93
2022-10-05T15:55:54.760Z,43.00
2022-10-05T15:57:10.990Z,43.01
2022-10-05T15:58:50.064Z,43.22
2022-10-05T16:00:02.117Z,43.42
2022-10-05T16:01:11.745Z,43.33
2022-10-05T16:02:29.950Z,43.65
2022-10-05T16:03:49.051Z,43.75
2022-10-05T16:05:14.525Z,43.78
2022-10-05T16:06:50.717Z,44.23
2022-10-05T16:08:32.275Z,44.39
2022-10-05T16:09:46.531Z,44.17
2022-10-05T16:10:48.997Z,44.47
2022-10-05T16:12:14.367Z,44.34
2022-10-05T16:13:41.220Z,44.31
2022-10-05T16:15:08.866Z,44.40
2022-10-05T16:16:25.837Z,44.80
2022-10-05T16:17:36.874Z,44.69
2022-10-05T16:18:50.386Z,44.83
2022-10-05T16:20:07.513Z,44.84
2022-10-05T16:21:53.909Z,44.38
2022-10-05T16:23:04.040Z,44.69
2022-10-05T16:24:35.686Z,45.02
2022-10-05T16:26:18.435Z,45.05
2022-10-05T16:27:20.838Z,44.89
2022-10-05T16:28:29.375Z,45.31
2022-10-05T16:29:46.892Z,45.31
2022-10-05T16:31:31.137Z,45.47
2022-10-05T16:32:38.617Z,45.87
2022-10-05T16:33:47.027Z,45.89
2022-10-05T16:34:59.998Z,45.99
2022-10-05T16:36:11.292Z,46.15
2022-10-05T16:37:23.754Z,46.03
2022-10-05T16:38:53.113Z,46.07
2022-10-05T16:40:28.554Z,46.58
2022-10-05T16:41:54.658Z,46.80
2022-10-05T16:43:16.556Z,46.63
2022-10-05T16:44:46.890Z,46.92
2022-10-05T16:46:03.363Z,47.11
2022-10-05T16:47:47.442Z,47.03
2022-10-05T16:49:08.824Z,47.21
2022-10-05T16:50:13.991Z,47.29
2022-10-05T16:51:48.654Z,47.32
2022-10-05T16:53:00.130Z,47.52
2022-10-05T16:54:27.861Z,47.73
2022-10-05T16:55:42.117Z,47.74
2022-10-05T16:57:06.287Z,47.73
2022-10-05T16:58:25.647Z,47.76
2022-10-05T16:59:40.218Z,47.87
2022-10-05T17:01:16.979Z,47.64
2022-10-05T17:02:38.092Z,47.76
2022-10-05T17:04:02.210Z,47.89
2022-10-05T17:05:55.789Z,47.94
2022-10-05T17:07:29.543Z,48.37
2022-10-05T17:08:40.913Z,48.35
2022-10-05T17:10:21.612Z,48.47